createdAt,value
2023-01-30T00:27:27.261Z,-22733.96
2023-01-30T00:30:02.786Z,-22738.13
2023-01-30T00:32:31.399Z,-22741.89
2023-01-30T00:34:58.762Z,-22746.13
2023-01-30T00:37:25.500Z,-22750.52
2023-01-30T00:39:52.202Z,-22754.72
2023-01-30T00:42:37.718Z,-22760.13
2023-01-30T00:45:23.641Z,-22765.32
2023-01-30T00:47:51.526Z,-22768.74
2023-01-30T00:50:18.923Z,-22770.62
2023-01-30T00:52:48.263Z,-22771.75
2023-01-30T00:55:15.177Z,-22771.58
2023-01-30T00:57:42.019Z,-22771.44
2023-01-30T01:00:09.899Z,-22771.75
2023-01-30T01:02:37.799Z,-22772.13
2023-01-30T01:05:05.004Z,-22771.31
2023-01-30T01:07:32.062Z,-22770.48
2023-01-30T01:09:59.553Z,-22769.08
2023-01-30T01:12:26.374Z,-22768.19
2023-01-30T01:14:53.406Z,-22767.61
2023-01-30T01:17:20.621Z,-22768.30
2023-01-30T01:19:47.376Z,-22769.39
2023-01-30T01:22:14.385Z,-22770.55
2023-01-30T01:24:41.366Z,-22771.79
2023-01-30T01:27:09.201Z,-22773.39
2023-01-30T01:29:36.733Z,-22774.42
2023-01-30T01:32:03.625Z,-22773.97
2023-01-30T01:34:30.420Z,-22774.21
2023-01-30T01:36:57.375Z,-22773.80
2023-01-30T01:39:24.566Z,-22772.91
2023-01-30T01:41:51.421Z,-22770.79
2023-01-30T01:44:18.625Z,-22768.54
2023-01-30T01:46:54.992Z,-22766.69
2023-01-30T01:49:26.402Z,-22766.07
2023-01-30T01:51:59.598Z,-22766.69
2023-01-30T01:54:43.155Z,-22767.71
2023-01-30T01:57:20.284Z,-22769.63
2023-01-30T01:59:52.538Z,-22771.65
2023-01-30T02:02:19.279Z,-22774.04
2023-01-30T04:10:40.569Z,-22783.00
2023-01-30T04:13:07.828Z,-22783.20
2023-01-30T04:15:34.635Z,-22783.10
2023-01-30T04:18:20.237Z,-22781.39
2023-01-30T04:21:05.665Z,-22780.19
2023-01-30T04:23:36.007Z,-22780.47
2023-01-30T04:26:04.019Z,-22781.50
2023-01-30T04:28:37.872Z,-22783.24
2023-01-30T04:31:04.839Z,-22784.81
2023-01-30T04:33:39.769Z,-22785.19
2023-01-30T04:36:07.918Z,-22784.71
2023-01-30T04:38:35.416Z,-22784.57
2023-01-30T04:41:04.024Z,-22784.50
2023-01-30T04:43:32.979Z,-22784.81
2023-01-30T04:46:18.905Z,-22783.92
2023-01-30T04:48:45.697Z,-22782.59
2023-01-30T04:51:12.766Z,-22782.14
2023-01-30T04:53:39.492Z,-22782.11
2023-01-30T04:56:06.780Z,-22783.07
2023-01-30T04:58:33.533Z,-22784.23
2023-01-30T05:01:21.045Z,-22785.53
2023-01-30T05:03:52.349Z,-22788.64
2023-01-30T05:06:19.783Z,-22789.05
2023-01-30T05:08:50.862Z,-22788.57
2023-01-30T05:11:18.390Z,-22788.16
2023-01-30T05:13:45.319Z,-22788.06
2023-01-30T05:16:14.247Z,-22787.04
2023-01-30T05:18:41.414Z,-22786.21
2023-01-30T05:21:12.579Z,-22785.73
2023-01-30T05:23:39.443Z,-22785.67
2023-01-30T05:26:06.978Z,-22786.52
2023-01-30T05:28:34.441Z,-22788.40
2023-01-30T05:31:09.881Z,-22790.66
2023-01-30T05:33:38.251Z,-22792.95
2023-01-30T05:36:05.574Z,-22794.52
2023-01-30T05:38:32.598Z,-22795.89
2023-01-30T05:41:03.515Z,-22796.09
2023-01-30T05:43:30.592Z,-22795.54
2023-01-30T05:46:02.866Z,-22793.84
2023-01-30T05:48:30.046Z,-22792.47
2023-01-30T05:50:58.010Z,-22790.66
2023-01-30T05:53:27.410Z,-22789.94
2023-01-30T05:55:58.726Z,-22789.94
2023-01-30T05:58:26.443Z,-22790.59
2023-01-30T06:00:54.211Z,-22792.30
2023-01-30T10:45:17.142Z,-22823.40
2023-01-30T10:48:11.050Z,-22832.42
2023-01-30T10:50:57.995Z,-22832.42
2023-01-30T10:53:47.777Z,-22832.70
2023-01-30T10:56:27.440Z,-22833.93
2023-01-30T10:59:02.794Z,-22834.37
2023-01-30T11:01:32.319Z,-22834.85
2023-01-30T11:04:03.313Z,-22836.80
2023-01-30T11:06:30.872Z,-22837.44
2023-01-30T11:08:57.945Z,-22835.57
2023-01-30T11:11:30.079Z,-22833.93
2023-01-30T11:14:07.913Z,-22834.06
2023-01-30T11:16:54.969Z,-22834.61
2023-01-30T11:19:23.230Z,-22833.38
2023-01-30T11:21:54.169Z,-22833.72
2023-01-30T11:24:29.199Z,-22835.40
2023-01-30T11:27:15.202Z,-22836.79
2023-01-30T11:29:41.999Z,-22838.95
2023-01-30T11:32:19.328Z,-22840.66
2023-01-30T11:34:46.237Z,-22843.15
2023-01-30T11:37:27.636Z,-22843.43
2023-01-30T11:39:54.467Z,-22841.68
2023-01-30T11:42:24.758Z,-22842.09
2023-01-30T11:45:06.470Z,-22843.18
2023-01-30T11:47:57.933Z,-22844.00
2023-01-30T11:50:33.353Z,-22843.12
2023-01-30T11:53:03.356Z,-22843.76
2023-01-30T11:55:30.277Z,-22845.37
2023-01-30T11:57:58.181Z,-22845.57
2023-01-30T12:00:38.320Z,-22844.28
2023-01-30T12:03:06.229Z,-22843.12
2023-01-30T12:05:34.730Z,-22841.17
2023-01-30T12:08:14.073Z,-22838.64
2023-01-30T12:10:42.044Z,-22838.33
2023-01-30T12:13:35.038Z,-22839.22
2023-01-30T12:16:25.965Z,-22840.69
2023-01-30T12:19:22.908Z,-22841.34
2023-01-30T12:21:55.711Z,-22841.27
2023-01-30T12:24:42.898Z,-22842.33
2023-01-30T12:27:20.629Z,-22844.48
2023-01-30T12:29:53.173Z,-22845.64
2023-01-30T12:32:21.793Z,-22845.64
2023-01-30T12:34:50.273Z,-22845.20
2023-01-30T12:37:44.610Z,-22844.58
2023-01-30T12:40:37.485Z,-22843.12
2023-01-30T12:43:20.619Z,-22842.74
2023-01-30T12:46:21.970Z,-22843.46
2023-01-30T12:49:10.919Z,-22843.36
2023-01-30T12:52:16.252Z,-22843.59
2023-01-30T12:54:52.342Z,-22843.73
2023-01-30T12:58:19.825Z,-22843.08
2023-01-30T13:01:27.415Z,-22841.85
2023-01-30T13:04:00.272Z,-22841.68
2023-01-30T13:06:39.273Z,-22842.54
2023-01-30T13:09:33.905Z,-22843.94
2023-01-30T13:12:12.793Z,-22844.89
2023-01-30T13:27:58.424Z,-22819.78
2023-01-30T13:30:27.188Z,-22825.32
2023-01-30T13:32:58.256Z,-22827.16
2023-01-30T13:35:33.066Z,-22828.49
2023-01-30T13:37:59.884Z,-22829.48
2023-01-30T13:40:44.924Z,-22830.99
2023-01-30T13:43:25.103Z,-22832.53
2023-01-30T13:45:53.222Z,-22833.72
